sensor_id;sensor_type;location;lat;lon;timestamp;P1;durP1;ratioP1;P2;durP2;ratioP2
15616;SDS011;7908;51.688;7.130;2022-08-19T00:01:42;7.33;;;6.73;;
15616;SDS011;7908;51.688;7.130;2022-08-19T00:04:19;7.03;;;6.43;;
15616;SDS011;7908;51.688;7.130;2022-08-19T00:06:54;7.20;;;6.60;;
15616;SDS011;7908;51.688;7.130;2022-08-19T00:09:29;7.30;;;6.70;;
15616;SDS011;7908;51.688;7.130;2022-08-19T00:12:02;7.63;;;6.93;;
15616;SDS011;7908;51.688;7.130;2022-08-19T00:14:34;7.17;;;6.63;;
15616;SDS011;7908;51.688;7.130;2022-08-19T00:17:09;8.10;;;6.63;;
15616;SDS011;7908;51.688;7.130;2022-08-19T00:19:39;7.67;;;6.97;;
15616;SDS011;7908;51.688;7.130;2022-08-19T00:22:09;7.60;;;7.00;;
15616;SDS011;7908;51.688;7.130;2022-08-19T00:24:41;7.27;;;6.67;;
15616;SDS011;7908;51.688;7.130;2022-08-19T00:27:16;6.67;;;6.17;;
15616;SDS011;7908;51.688;7.130;2022-08-19T00:29:52;7.23;;;6.63;;
15616;SDS011;7908;51.688;7.130;2022-08-19T00:32:31;7.27;;;6.67;;
15616;SDS011;7908;51.688;7.130;2022-08-19T00:35:01;7.77;;;7.17;;
15616;SDS011;7908;51.688;7.130;2022-08-19T00:37:32;7.57;;;6.93;;
15616;SDS011;7908;51.688;7.130;2022-08-19T00:40:13;7.67;;;7.07;;
15616;SDS011;7908;51.688;7.130;2022-08-19T00:42:43;7.93;;;7.23;;
15616;SDS011;7908;51.688;7.130;2022-08-19T00:45:18;8.50;;;7.80;;
15616;SDS011;7908;51.688;7.130;2022-08-19T00:47:51;8.80;;;7.90;;
15616;SDS011;7908;51.688;7.130;2022-08-19T00:50:23;8.40;;;7.70;;
15616;SDS011;7908;51.688;7.130;2022-08-19T00:52:56;8.03;;;7.43;;
15616;SDS011;7908;51.688;7.130;2022-08-19T00:55:27;7.43;;;6.73;;
15616;SDS011;7908;51.688;7.130;2022-08-19T00:58:07;7.37;;;6.77;;
15616;SDS011;7908;51.688;7.130;2022-08-19T01:00:39;8.00;;;7.30;;
15616;SDS011;7908;51.688;7.130;2022-08-19T01:03:11;7.43;;;6.77;;
15616;SDS011;7908;51.688;7.130;2022-08-19T01:05:45;8.30;;;7.60;;
15616;SDS011;7908;51.688;7.130;2022-08-19T01:08:17;7.73;;;7.13;;
15616;SDS011;7908;51.688;7.130;2022-08-19T01:10:48;8.07;;;7.37;;
15616;SDS011;7908;51.688;7.130;2022-08-19T01:13:23;8.23;;;7.63;;
15616;SDS011;7908;51.688;7.130;2022-08-19T01:16:14;8.57;;;7.63;;
15616;SDS011;7908;51.688;7.130;2022-08-19T01:18:46;8.23;;;7.53;;
15616;SDS011;7908;51.688;7.130;2022-08-19T01:21:17;8.03;;;7.43;;
15616;SDS011;7908;51.688;7.130;2022-08-19T01:23:53;8.47;;;7.77;;
15616;SDS011;7908;51.688;7.130;2022-08-19T01:26:25;8.43;;;7.73;;
15616;SDS011;7908;51.688;7.130;2022-08-19T01:28:58;8.07;;;7.40;;
15616;SDS011;7908;51.688;7.130;2022-08-19T01:31:30;8.87;;;8.07;;
15616;SDS011;7908;51.688;7.130;2022-08-19T01:34:00;8.13;;;7.43;;
15616;SDS011;7908;51.688;7.130;2022-08-19T01:36:34;7.67;;;7.00;;
15616;SDS011;7908;51.688;7.130;2022-08-19T01:39:09;8.37;;;7.60;;
15616;SDS011;7908;51.688;7.130;2022-08-19T01:41:40;8.00;;;7.40;;
15616;SDS011;7908;51.688;7.130;2022-08-19T01:44:09;8.67;;;7.97;;
15616;SDS011;7908;51.688;7.130;2022-08-19T01:46:45;8.13;;;7.33;;
15616;SDS011;7908;51.688;7.130;2022-08-19T01:49:17;8.27;;;7.57;;
15616;SDS011;7908;51.688;7.130;2022-08-19T01:51:50;8.33;;;7.67;;
15616;SDS011;7908;51.688;7.130;2022-08-19T01:54:22;8.07;;;7.40;;
15616;SDS011;7908;51.688;7.130;2022-08-19T01:56:55;8.07;;;7.47;;
15616;SDS011;7908;51.688;7.130;2022-08-19T01:59:28;8.00;;;7.40;;
15616;SDS011;7908;51.688;7.130;2022-08-19T02:01:58;7.53;;;7.00;;
15616;SDS011;7908;51.688;7.130;2022-08-19T02:04:29;7.90;;;7.20;;
15616;SDS011;7908;51.688;7.130;2022-08-19T02:06:58;8.10;;;7.30;;
15616;SDS011;7908;51.688;7.130;2022-08-19T02:09:32;8.13;;;7.43;;
15616;SDS011;7908;51.688;7.130;2022-08-19T02:12:02;7.57;;;6.97;;
15616;SDS011;7908;51.688;7.130;2022-08-19T02:14:33;8.23;;;7.53;;
15616;SDS011;7908;51.688;7.130;2022-08-19T02:17:06;7.80;;;7.20;;
15616;SDS011;7908;51.688;7.130;2022-08-19T02:19:35;8.33;;;7.73;;
15616;SDS011;7908;51.688;7.130;2022-08-19T02:22:06;7.63;;;7.03;;
15616;SDS011;7908;51.688;7.130;2022-08-19T02:24:42;8.20;;;7.50;;
15616;SDS011;7908;51.688;7.130;2022-08-19T02:27:15;8.37;;;7.67;;
15616;SDS011;7908;51.688;7.130;2022-08-19T02:29:49;9.97;;;7.77;;
15616;SDS011;7908;51.688;7.130;2022-08-19T02:32:19;8.70;;;7.97;;
15616;SDS011;7908;51.688;7.130;2022-08-19T02:34:49;8.70;;;7.90;;
15616;SDS011;7908;51.688;7.130;2022-08-19T02:37:18;7.70;;;7.00;;
15616;SDS011;7908;51.688;7.130;2022-08-19T02:40:07;8.50;;;7.80;;
15616;SDS011;7908;51.688;7.130;2022-08-19T02:42:38;8.33;;;7.53;;
15616;SDS011;7908;51.688;7.130;2022-08-19T02:45:09;8.00;;;7.30;;
15616;SDS011;7908;51.688;7.130;2022-08-19T02:47:39;8.90;;;8.10;;
15616;SDS011;7908;51.688;7.130;2022-08-19T02:50:11;8.50;;;7.80;;
15616;SDS011;7908;51.688;7.130;2022-08-19T02:52:41;8.30;;;7.60;;
15616;SDS011;7908;51.688;7.130;2022-08-19T02:55:12;7.97;;;7.27;;
15616;SDS011;7908;51.688;7.130;2022-08-19T02:57:41;8.60;;;7.73;;
15616;SDS011;7908;51.688;7.130;2022-08-19T03:00:14;8.60;;;7.90;;
15616;SDS011;7908;51.688;7.130;2022-08-19T03:02:46;8.20;;;7.50;;
15616;SDS011;7908;51.688;7.130;2022-08-19T03:05:17;8.50;;;7.70;;
15616;SDS011;7908;51.688;7.130;2022-08-19T03:08:10;8.07;;;7.47;;
15616;SDS011;7908;51.688;7.130;2022-08-19T03:10:45;7.80;;;7.20;;
15616;SDS011;7908;51.688;7.130;2022-08-19T03:13:16;8.30;;;7.70;;
15616;SDS011;7908;51.688;7.130;2022-08-19T03:15:47;8.23;;;7.43;;
15616;SDS011;7908;51.688;7.130;2022-08-19T03:18:17;8.30;;;7.60;;
15616;SDS011;7908;51.688;7.130;2022-08-19T03:20:50;7.97;;;7.30;;
15616;SDS011;7908;51.688;7.130;2022-08-19T03:23:23;8.17;;;7.50;;
15616;SDS011;7908;51.688;7.130;2022-08-19T03:25:54;8.80;;;8.10;;
15616;SDS011;7908;51.688;7.130;2022-08-19T03:28:42;9.00;;;8.20;;
15616;SDS011;7908;51.688;7.130;2022-08-19T03:31:18;9.30;;;8.40;;
15616;SDS011;7908;51.688;7.130;2022-08-19T03:34:10;9.03;;;8.30;;
15616;SDS011;7908;51.688;7.130;2022-08-19T03:36:42;9.07;;;8.33;;
15616;SDS011;7908;51.688;7.130;2022-08-19T03:39:12;9.47;;;8.50;;
15616;SDS011;7908;51.688;7.130;2022-08-19T03:41:44;9.30;;;8.57;;
15616;SDS011;7908;51.688;7.130;2022-08-19T03:44:39;8.97;;;8.27;;
15616;SDS011;7908;51.688;7.130;2022-08-19T03:47:13;9.20;;;8.50;;
15616;SDS011;7908;51.688;7.130;2022-08-19T03:49:44;8.50;;;7.80;;
15616;SDS011;7908;51.688;7.130;2022-08-19T03:52:17;8.67;;;7.97;;
15616;SDS011;7908;51.688;7.130;2022-08-19T03:54:46;8.17;;;7.47;;
15616;SDS011;7908;51.688;7.130;2022-08-19T03:57:16;7.93;;;7.33;;
15616;SDS011;7908;51.688;7.130;2022-08-19T03:59:57;8.10;;;7.50;;
15616;SDS011;7908;51.688;7.130;2022-08-19T04:02:39;9.27;;;8.40;;
15616;SDS011;7908;51.688;7.130;2022-08-19T04:05:26;10.00;;;9.10;;
15616;SDS011;7908;51.688;7.130;2022-08-19T04:07:56;9.10;;;8.40;;
15616;SDS011;7908;51.688;7.130;2022-08-19T04:10:34;9.90;;;9.10;;
15616;SDS011;7908;51.688;7.130;2022-08-19T04:13:06;9.63;;;8.90;;
15616;SDS011;7908;51.688;7.130;2022-08-19T04:15:38;9.53;;;8.73;;
15616;SDS011;7908;51.688;7.130;2022-08-19T04:18:09;10.03;;;8.83;;
15616;SDS011;7908;51.688;7.130;2022-08-19T04:20:46;9.10;;;8.20;;
15616;SDS011;7908;51.688;7.130;2022-08-19T04:23:16;9.07;;;8.10;;
15616;SDS011;7908;51.688;7.130;2022-08-19T04:25:46;9.20;;;8.50;;
15616;SDS011;7908;51.688;7.130;2022-08-19T04:28:17;8.70;;;7.80;;
15616;SDS011;7908;51.688;7.130;2022-08-19T04:30:48;8.80;;;7.93;;
15616;SDS011;7908;51.688;7.130;2022-08-19T04:33:19;8.80;;;8.00;;
15616;SDS011;7908;51.688;7.130;2022-08-19T04:35:55;8.83;;;8.03;;
15616;SDS011;7908;51.688;7.130;2022-08-19T04:38:26;8.93;;;8.10;;
15616;SDS011;7908;51.688;7.130;2022-08-19T04:40:56;8.73;;;7.93;;
15616;SDS011;7908;51.688;7.130;2022-08-19T04:43:46;8.13;;;7.33;;
15616;SDS011;7908;51.688;7.130;2022-08-19T04:46:19;9.03;;;8.13;;
15616;SDS011;7908;51.688;7.130;2022-08-19T04:49:06;8.30;;;7.50;;
15616;SDS011;7908;51.688;7.130;2022-08-19T04:51:39;9.37;;;8.47;;
15616;SDS011;7908;51.688;7.130;2022-08-19T04:54:10;9.20;;;8.30;;
15616;SDS011;7908;51.688;7.130;2022-08-19T04:57:04;9.47;;;8.67;;
15616;SDS011;7908;51.688;7.130;2022-08-19T04:59:37;9.70;;;8.80;;
15616;SDS011;7908;51.688;7.130;2022-08-19T05:02:07;10.03;;;9.07;;
15616;SDS011;7908;51.688;7.130;2022-08-19T05:04:37;9.23;;;8.17;;
15616;SDS011;7908;51.688;7.130;2022-08-19T05:07:07;9.50;;;8.50;;
15616;SDS011;7908;51.688;7.130;2022-08-19T05:09:38;10.93;;;8.47;;
15616;SDS011;7908;51.688;7.130;2022-08-19T05:12:24;9.27;;;8.37;;
15616;SDS011;7908;51.688;7.130;2022-08-19T05:14:58;9.70;;;8.77;;
15616;SDS011;7908;51.688;7.130;2022-08-19T05:17:31;9.77;;;8.73;;
15616;SDS011;7908;51.688;7.130;2022-08-19T05:20:05;9.73;;;8.80;;
15616;SDS011;7908;51.688;7.130;2022-08-19T05:22:53;8.53;;;7.50;;
15616;SDS011;7908;51.688;7.130;2022-08-19T05:25:23;8.93;;;8.13;;
15616;SDS011;7908;51.688;7.130;2022-08-19T05:27:53;8.73;;;7.93;;
15616;SDS011;7908;51.688;7.130;2022-08-19T05:30:32;9.93;;;9.00;;
15616;SDS011;7908;51.688;7.130;2022-08-19T05:33:13;11.53;;;7.80;;
15616;SDS011;7908;51.688;7.130;2022-08-19T05:35:43;8.57;;;7.80;;
15616;SDS011;7908;51.688;7.130;2022-08-19T05:38:13;8.70;;;7.83;;
15616;SDS011;7908;51.688;7.130;2022-08-19T05:40:44;7.60;;;7.00;;
15616;SDS011;7908;51.688;7.130;2022-08-19T05:43:15;8.00;;;7.13;;
15616;SDS011;7908;51.688;7.130;2022-08-19T05:45:47;7.20;;;6.60;;
15616;SDS011;7908;51.688;7.130;2022-08-19T05:48:21;8.07;;;7.37;;
15616;SDS011;7908;51.688;7.130;2022-08-19T05:50:53;9.20;;;7.47;;
15616;SDS011;7908;51.688;7.130;2022-08-19T05:53:26;8.17;;;7.07;;
15616;SDS011;7908;51.688;7.130;2022-08-19T05:55:56;8.03;;;7.40;;
15616;SDS011;7908;51.688;7.130;2022-08-19T05:58:26;9.10;;;7.77;;
15616;SDS011;7908;51.688;7.130;2022-08-19T06:01:01;8.87;;;8.00;;
15616;SDS011;7908;51.688;7.130;2022-08-19T06:03:35;8.17;;;7.37;;
15616;SDS011;7908;51.688;7.130;2022-08-19T06:06:15;8.20;;;7.50;;
15616;SDS011;7908;51.688;7.130;2022-08-19T06:08:48;7.63;;;7.03;;
15616;SDS011;7908;51.688;7.130;2022-08-19T06:11:23;7.83;;;7.03;;
15616;SDS011;7908;51.688;7.130;2022-08-19T06:14:00;9.67;;;8.03;;
15616;SDS011;7908;51.688;7.130;2022-08-19T06:16:43;9.77;;;8.43;;
15616;SDS011;7908;51.688;7.130;2022-08-19T06:19:16;8.30;;;7.60;;
15616;SDS011;7908;51.688;7.130;2022-08-19T06:22:06;8.90;;;8.00;;
15616;SDS011;7908;51.688;7.130;2022-08-19T06:24:38;8.27;;;7.47;;
15616;SDS011;7908;51.688;7.130;2022-08-19T06:27:10;8.80;;;7.20;;
15616;SDS011;7908;51.688;7.130;2022-08-19T06:29:43;8.10;;;7.13;;
15616;SDS011;7908;51.688;7.130;2022-08-19T06:32:16;9.93;;;8.40;;
15616;SDS011;7908;51.688;7.130;2022-08-19T06:34:50;8.70;;;7.80;;
15616;SDS011;7908;51.688;7.130;2022-08-19T06:37:23;8.93;;;8.13;;
15616;SDS011;7908;51.688;7.130;2022-08-19T06:39:55;9.87;;;8.57;;
15616;SDS011;7908;51.688;7.130;2022-08-19T06:42:27;9.17;;;7.50;;
15616;SDS011;7908;51.688;7.130;2022-08-19T06:45:00;11.33;;;10.23;;
15616;SDS011;7908;51.688;7.130;2022-08-19T06:47:36;12.83;;;9.87;;
15616;SDS011;7908;51.688;7.130;2022-08-19T06:50:15;12.23;;;10.00;;
15616;SDS011;7908;51.688;7.130;2022-08-19T06:52:53;12.87;;;9.67;;
15616;SDS011;7908;51.688;7.130;2022-08-19T06:55:27;12.90;;;9.90;;
15616;SDS011;7908;51.688;7.130;2022-08-19T06:58:04;13.57;;;10.60;;
15616;SDS011;7908;51.688;7.130;2022-08-19T07:00:34;11.37;;;10.20;;
15616;SDS011;7908;51.688;7.130;2022-08-19T07:03:05;13.00;;;10.40;;
15616;SDS011;7908;51.688;7.130;2022-08-19T07:05:40;14.52;;;12.13;;
15616;SDS011;7908;51.688;7.130;2022-08-19T07:08:15;14.05;;;12.55;;
15616;SDS011;7908;51.688;7.130;2022-08-19T07:10:47;13.67;;;12.17;;
15616;SDS011;7908;51.688;7.130;2022-08-19T07:13:17;14.93;;;13.33;;
15616;SDS011;7908;51.688;7.130;2022-08-19T07:15:52;14.60;;;13.10;;
15616;SDS011;7908;51.688;7.130;2022-08-19T07:18:32;19.73;;;15.30;;
15616;SDS011;7908;51.688;7.130;2022-08-19T07:21:10;16.10;;;14.30;;
15616;SDS011;7908;51.688;7.130;2022-08-19T07:23:44;18.00;;;15.50;;
15616;SDS011;7908;51.688;7.130;2022-08-19T07:26:19;17.00;;;14.93;;
15616;SDS011;7908;51.688;7.130;2022-08-19T07:28:54;15.40;;;13.77;;
15616;SDS011;7908;51.688;7.130;2022-08-19T07:31:33;18.45;;;14.63;;
15616;SDS011;7908;51.688;7.130;2022-08-19T07:34:06;21.10;;;15.55;;
15616;SDS011;7908;51.688;7.130;2022-08-19T07:36:40;16.23;;;13.57;;
15616;SDS011;7908;51.688;7.130;2022-08-19T07:39:16;15.02;;;12.93;;
15616;SDS011;7908;51.688;7.130;2022-08-19T07:41:52;20.95;;;13.38;;
15616;SDS011;7908;51.688;7.130;2022-08-19T07:44:28;15.73;;;14.05;;
15616;SDS011;7908;51.688;7.130;2022-08-19T07:47:03;16.33;;;12.50;;
15616;SDS011;7908;51.688;7.130;2022-08-19T07:49:55;15.55;;;12.60;;
15616;SDS011;7908;51.688;7.130;2022-08-19T07:52:27;15.02;;;12.38;;
15616;SDS011;7908;51.688;7.130;2022-08-19T07:54:57;13.32;;;11.38;;
15616;SDS011;7908;51.688;7.130;2022-08-19T07:57:31;12.48;;;11.07;;
15616;SDS011;7908;51.688;7.130;2022-08-19T08:00:00;14.45;;;13.05;;
15616;SDS011;7908;51.688;7.130;2022-08-19T08:02:32;11.73;;;10.52;;
15616;SDS011;7908;51.688;7.130;2022-08-19T08:05:05;13.57;;;11.45;;
15616;SDS011;7908;51.688;7.130;2022-08-19T08:07:59;13.02;;;11.43;;
15616;SDS011;7908;51.688;7.130;2022-08-19T08:11:01;13.82;;;12.05;;
15616;SDS011;7908;51.688;7.130;2022-08-19T08:13:33;12.85;;;11.35;;
15616;SDS011;7908;51.688;7.130;2022-08-19T08:16:05;13.07;;;11.75;;
15616;SDS011;7908;51.688;7.130;2022-08-19T08:18:46;12.55;;;10.45;;
15616;SDS011;7908;51.688;7.130;2022-08-19T08:21:17;11.48;;;10.00;;
15616;SDS011;7908;51.688;7.130;2022-08-19T08:23:47;10.98;;;9.98;;
15616;SDS011;7908;51.688;7.130;2022-08-19T08:26:23;11.18;;;9.98;;
15616;SDS011;7908;51.688;7.130;2022-08-19T08:29:00;15.05;;;10.73;;
15616;SDS011;7908;51.688;7.130;2022-08-19T08:31:39;12.13;;;9.75;;
15616;SDS011;7908;51.688;7.130;2022-08-19T08:34:11;12.45;;;9.10;;
15616;SDS011;7908;51.688;7.130;2022-08-19T08:36:44;12.38;;;9.05;;
15616;SDS011;7908;51.688;7.130;2022-08-19T08:39:17;10.45;;;9.30;;
15616;SDS011;7908;51.688;7.130;2022-08-19T08:41:50;10.02;;;8.40;;
15616;SDS011;7908;51.688;7.130;2022-08-19T08:44:38;14.00;;;10.23;;
15616;SDS011;7908;51.688;7.130;2022-08-19T08:47:26;10.82;;;9.82;;
15616;SDS011;7908;51.688;7.130;2022-08-19T08:50:07;10.52;;;9.38;;
15616;SDS011;7908;51.688;7.130;2022-08-19T08:52:47;9.98;;;9.07;;
15616;SDS011;7908;51.688;7.130;2022-08-19T08:55:25;10.77;;;9.00;;
15616;SDS011;7908;51.688;7.130;2022-08-19T08:58:03;10.15;;;9.25;;
15616;SDS011;7908;51.688;7.130;2022-08-19T09:00:37;8.70;;;7.55;;
15616;SDS011;7908;51.688;7.130;2022-08-19T09:05:52;12.65;;;11.20;;
15616;SDS011;7908;51.688;7.130;2022-08-19T09:08:45;13.55;;;12.35;;
15616;SDS011;7908;51.688;7.130;2022-08-19T09:11:32;13.25;;;9.88;;
15616;SDS011;7908;51.688;7.130;2022-08-19T09:14:18;10.88;;;9.05;;
15616;SDS011;7908;51.688;7.130;2022-08-19T09:17:15;13.52;;;12.23;;
15616;SDS011;7908;51.688;7.130;2022-08-19T09:19:51;10.43;;;9.52;;
15616;SDS011;7908;51.688;7.130;2022-08-19T09:22:22;12.50;;;11.30;;
15616;SDS011;7908;51.688;7.130;2022-08-19T09:24:55;12.68;;;11.23;;
15616;SDS011;7908;51.688;7.130;2022-08-19T09:27:27;14.15;;;12.80;;
15616;SDS011;7908;51.688;7.130;2022-08-19T09:30:12;13.77;;;12.35;;
15616;SDS011;7908;51.688;7.130;2022-08-19T09:32:56;16.77;;;12.98;;
15616;SDS011;7908;51.688;7.130;2022-08-19T09:35:33;14.10;;;12.57;;
15616;SDS011;7908;51.688;7.130;2022-08-19T09:38:18;15.82;;;13.43;;
15616;SDS011;7908;51.688;7.130;2022-08-19T09:40:55;15.65;;;14.15;;
15616;SDS011;7908;51.688;7.130;2022-08-19T09:43:26;16.27;;;14.70;;
15616;SDS011;7908;51.688;7.130;2022-08-19T09:46:10;16.90;;;13.75;;
15616;SDS011;7908;51.688;7.130;2022-08-19T09:48:53;16.60;;;13.57;;
15616;SDS011;7908;51.688;7.130;2022-08-19T09:51:32;13.77;;;12.15;;
15616;SDS011;7908;51.688;7.130;2022-08-19T09:54:05;13.48;;;11.85;;
15616;SDS011;7908;51.688;7.130;2022-08-19T09:56:37;16.45;;;14.63;;
15616;SDS011;7908;51.688;7.130;2022-08-19T09:59:10;15.38;;;13.27;;
15616;SDS011;7908;51.688;7.130;2022-08-19T10:01:45;16.95;;;15.25;;
15616;SDS011;7908;51.688;7.130;2022-08-19T10:04:18;10.90;;;9.80;;
15616;SDS011;7908;51.688;7.130;2022-08-19T10:07:17;11.60;;;10.50;;
15616;SDS011;7908;51.688;7.130;2022-08-19T10:09:54;18.13;;;11.07;;
15616;SDS011;7908;51.688;7.130;2022-08-19T10:12:40;14.00;;;9.65;;
15616;SDS011;7908;51.688;7.130;2022-08-19T10:15:18;12.57;;;11.27;;
15616;SDS011;7908;51.688;7.130;2022-08-19T10:17:55;13.93;;;12.55;;
15616;SDS011;7908;51.688;7.130;2022-08-19T10:20:34;12.32;;;11.13;;
15616;SDS011;7908;51.688;7.130;2022-08-19T10:23:08;11.45;;;10.25;;
15616;SDS011;7908;51.688;7.130;2022-08-19T10:26:01;10.18;;;9.18;;
15616;SDS011;7908;51.688;7.130;2022-08-19T10:28:33;10.63;;;9.57;;
15616;SDS011;7908;51.688;7.130;2022-08-19T10:31:11;13.77;;;12.30;;
15616;SDS011;7908;51.688;7.130;2022-08-19T10:33:45;13.20;;;10.90;;
15616;SDS011;7908;51.688;7.130;2022-08-19T10:36:21;11.80;;;10.15;;
15616;SDS011;7908;51.688;7.130;2022-08-19T10:39:02;10.70;;;9.60;;
15616;SDS011;7908;51.688;7.130;2022-08-19T10:41:37;10.52;;;9.00;;
15616;SDS011;7908;51.688;7.130;2022-08-19T10:44:18;9.75;;;8.65;;
15616;SDS011;7908;51.688;7.130;2022-08-19T10:47:08;13.15;;;10.02;;
15616;SDS011;7908;51.688;7.130;2022-08-19T10:49:50;11.95;;;10.50;;
15616;SDS011;7908;51.688;7.130;2022-08-19T10:52:47;12.70;;;11.02;;
15616;SDS011;7908;51.688;7.130;2022-08-19T10:55:22;11.75;;;10.65;;
15616;SDS011;7908;51.688;7.130;2022-08-19T10:58:16;10.43;;;9.25;;
15616;SDS011;7908;51.688;7.130;2022-08-19T11:00:55;13.18;;;11.82;;
15616;SDS011;7908;51.688;7.130;2022-08-19T11:03:29;12.38;;;10.93;;
15616;SDS011;7908;51.688;7.130;2022-08-19T11:06:01;11.48;;;10.38;;
15616;SDS011;7908;51.688;7.130;2022-08-19T11:08:38;10.02;;;9.02;;
15616;SDS011;7908;51.688;7.130;2022-08-19T11:11:15;11.10;;;10.00;;
15616;SDS011;7908;51.688;7.130;2022-08-19T11:13:55;13.48;;;10.32;;
15616;SDS011;7908;51.688;7.130;2022-08-19T11:16:55;11.63;;;8.75;;
15616;SDS011;7908;51.688;7.130;2022-08-19T11:19:36;13.25;;;11.70;;
15616;SDS011;7908;51.688;7.130;2022-08-19T11:22:32;12.45;;;11.15;;
15616;SDS011;7908;51.688;7.130;2022-08-19T11:25:09;16.42;;;12.60;;
15616;SDS011;7908;51.688;7.130;2022-08-19T11:27:43;11.63;;;10.52;;
15616;SDS011;7908;51.688;7.130;2022-08-19T11:30:17;10.55;;;9.45;;
15616;SDS011;7908;51.688;7.130;2022-08-19T11:32:54;13.40;;;12.10;;
15616;SDS011;7908;51.688;7.130;2022-08-19T11:35:34;11.80;;;10.50;;
15616;SDS011;7908;51.688;7.130;2022-08-19T11:38:23;14.30;;;12.13;;
15616;SDS011;7908;51.688;7.130;2022-08-19T11:41:09;15.18;;;13.52;;
15616;SDS011;7908;51.688;7.130;2022-08-19T11:43:42;14.77;;;13.32;;
15616;SDS011;7908;51.688;7.130;2022-08-19T11:46:21;13.02;;;11.65;;
15616;SDS011;7908;51.688;7.130;2022-08-19T11:49:05;12.95;;;11.68;;
15616;SDS011;7908;51.688;7.130;2022-08-19T11:51:39;14.65;;;13.18;;
15616;SDS011;7908;51.688;7.130;2022-08-19T11:54:12;12.75;;;11.40;;
15616;SDS011;7908;51.688;7.130;2022-08-19T11:56:48;10.57;;;9.13;;
15616;SDS011;7908;51.688;7.130;2022-08-19T11:59:20;11.73;;;10.52;;
15616;SDS011;7908;51.688;7.130;2022-08-19T12:01:58;9.18;;;8.38;;
15616;SDS011;7908;51.688;7.130;2022-08-19T12:04:34;10.73;;;9.73;;
15616;SDS011;7908;51.688;7.130;2022-08-19T12:07:04;13.00;;;11.02;;
15616;SDS011;7908;51.688;7.130;2022-08-19T12:09:35;10.05;;;9.05;;
15616;SDS011;7908;51.688;7.130;2022-08-19T12:12:11;10.15;;;8.82;;
15616;SDS011;7908;51.688;7.130;2022-08-19T12:14:44;11.57;;;9.98;;
15616;SDS011;7908;51.688;7.130;2022-08-19T12:17:27;13.93;;;12.52;;
15616;SDS011;7908;51.688;7.130;2022-08-19T12:20:05;12.13;;;10.95;;
15616;SDS011;7908;51.688;7.130;2022-08-19T12:22:39;11.65;;;10.63;;
15616;SDS011;7908;51.688;7.130;2022-08-19T12:25:23;13.40;;;12.00;;
15616;SDS011;7908;51.688;7.130;2022-08-19T12:28:04;14.40;;;12.85;;
15616;SDS011;7908;51.688;7.130;2022-08-19T12:30:39;13.65;;;11.50;;
15616;SDS011;7908;51.688;7.130;2022-08-19T12:33:11;13.30;;;11.57;;
15616;SDS011;7908;51.688;7.130;2022-08-19T12:35:45;11.05;;;7.75;;
15616;SDS011;7908;51.688;7.130;2022-08-19T12:38:24;7.75;;;6.70;;
15616;SDS011;7908;51.688;7.130;2022-08-19T12:40:58;7.80;;;7.10;;
15616;SDS011;7908;51.688;7.130;2022-08-19T12:43:31;7.72;;;6.75;;
15616;SDS011;7908;51.688;7.130;2022-08-19T12:46:19;8.20;;;6.75;;
15616;SDS011;7908;51.688;7.130;2022-08-19T12:48:51;6.80;;;6.20;;
15616;SDS011;7908;51.688;7.130;2022-08-19T12:51:31;9.63;;;7.78;;
15616;SDS011;7908;51.688;7.130;2022-08-19T12:54:04;7.47;;;5.85;;
15616;SDS011;7908;51.688;7.130;2022-08-19T12:56:36;9.13;;;8.20;;
15616;SDS011;7908;51.688;7.130;2022-08-19T12:59:08;8.02;;;7.22;;
15616;SDS011;7908;51.688;7.130;2022-08-19T13:01:47;12.07;;;6.88;;
15616;SDS011;7908;51.688;7.130;2022-08-19T13:04:24;6.00;;;5.40;;
15616;SDS011;7908;51.688;7.130;2022-08-19T13:06:58;6.78;;;5.32;;
15616;SDS011;7908;51.688;7.130;2022-08-19T13:09:38;5.82;;;5.22;;
15616;SDS011;7908;51.688;7.130;2022-08-19T13:12:14;5.68;;;4.95;;
15616;SDS011;7908;51.688;7.130;2022-08-19T13:14:58;6.20;;;4.60;;
15616;SDS011;7908;51.688;7.130;2022-08-19T13:17:28;6.15;;;5.13;;
15616;SDS011;7908;51.688;7.130;2022-08-19T13:20:03;5.28;;;4.70;;
15616;SDS011;7908;51.688;7.130;2022-08-19T13:22:39;5.47;;;4.40;;
15616;SDS011;7908;51.688;7.130;2022-08-19T13:25:14;5.05;;;4.55;;
15616;SDS011;7908;51.688;7.130;2022-08-19T13:30:47;5.13;;;4.60;;
15616;SDS011;7908;51.688;7.130;2022-08-19T13:33:38;5.78;;;4.20;;
15616;SDS011;7908;51.688;7.130;2022-08-19T13:36:13;4.38;;;3.63;;
15616;SDS011;7908;51.688;7.130;2022-08-19T13:38:51;5.75;;;3.90;;
15616;SDS011;7908;51.688;7.130;2022-08-19T13:41:21;4.00;;;3.60;;
15616;SDS011;7908;51.688;7.130;2022-08-19T13:43:55;6.45;;;3.40;;
15616;SDS011;7908;51.688;7.130;2022-08-19T13:46:51;3.65;;;3.20;;
15616;SDS011;7908;51.688;7.130;2022-08-19T13:49:23;6.35;;;4.20;;
15616;SDS011;7908;51.688;7.130;2022-08-19T13:51:56;5.40;;;4.03;;
15616;SDS011;7908;51.688;7.130;2022-08-19T13:54:32;5.45;;;3.83;;
15616;SDS011;7908;51.688;7.130;2022-08-19T13:57:09;4.97;;;3.50;;
15616;SDS011;7908;51.688;7.130;2022-08-19T13:59:43;6.50;;;4.10;;
15616;SDS011;7908;51.688;7.130;2022-08-19T14:02:14;8.45;;;3.92;;
15616;SDS011;7908;51.688;7.130;2022-08-19T14:04:48;4.18;;;3.42;;
15616;SDS011;7908;51.688;7.130;2022-08-19T14:07:28;4.85;;;3.72;;
15616;SDS011;7908;51.688;7.130;2022-08-19T14:10:14;5.80;;;3.28;;
15616;SDS011;7908;51.688;7.130;2022-08-19T14:12:44;5.32;;;3.35;;
15616;SDS011;7908;51.688;7.130;2022-08-19T14:15:15;10.02;;;4.90;;
15616;SDS011;7908;51.688;7.130;2022-08-19T14:17:56;8.18;;;4.10;;
15616;SDS011;7908;51.688;7.130;2022-08-19T14:20:26;5.55;;;3.75;;
15616;SDS011;7908;51.688;7.130;2022-08-19T14:23:08;4.13;;;3.42;;
15616;SDS011;7908;51.688;7.130;2022-08-19T14:25:40;5.05;;;3.40;;
15616;SDS011;7908;51.688;7.130;2022-08-19T14:28:16;3.42;;;3.13;;
15616;SDS011;7908;51.688;7.130;2022-08-19T14:30:53;4.18;;;3.60;;
15616;SDS011;7908;51.688;7.130;2022-08-19T14:33:28;6.53;;;3.83;;
15616;SDS011;7908;51.688;7.130;2022-08-19T14:36:01;7.38;;;4.22;;
15616;SDS011;7908;51.688;7.130;2022-08-19T14:38:43;7.20;;;4.70;;
15616;SDS011;7908;51.688;7.130;2022-08-19T14:41:24;6.40;;;4.60;;
15616;SDS011;7908;51.688;7.130;2022-08-19T14:44:00;6.57;;;5.03;;
15616;SDS011;7908;51.688;7.130;2022-08-19T14:47:11;10.55;;;5.25;;
15616;SDS011;7908;51.688;7.130;2022-08-19T14:50:01;9.88;;;5.88;;
15616;SDS011;7908;51.688;7.130;2022-08-19T14:52:46;7.32;;;6.07;;
15616;SDS011;7908;51.688;7.130;2022-08-19T14:55:19;8.85;;;7.25;;
15616;SDS011;7908;51.688;7.130;2022-08-19T14:57:58;7.82;;;7.07;;
15616;SDS011;7908;51.688;7.130;2022-08-19T15:00:34;9.23;;;6.90;;
15616;SDS011;7908;51.688;7.130;2022-08-19T15:03:05;7.00;;;6.30;;
15616;SDS011;7908;51.688;7.130;2022-08-19T15:05:36;9.18;;;7.40;;
15616;SDS011;7908;51.688;7.130;2022-08-19T15:08:11;14.43;;;6.72;;
15616;SDS011;7908;51.688;7.130;2022-08-19T15:10:55;12.40;;;8.55;;
15616;SDS011;7908;51.688;7.130;2022-08-19T15:13:32;9.77;;;7.03;;
15616;SDS011;7908;51.688;7.130;2022-08-19T15:16:09;7.40;;;5.97;;
15616;SDS011;7908;51.688;7.130;2022-08-19T15:18:48;8.77;;;6.50;;
15616;SDS011;7908;51.688;7.130;2022-08-19T15:21:33;7.82;;;6.53;;
15616;SDS011;7908;51.688;7.130;2022-08-19T15:24:08;7.47;;;6.63;;
15616;SDS011;7908;51.688;7.130;2022-08-19T15:26:44;6.15;;;5.63;;
15616;SDS011;7908;51.688;7.130;2022-08-19T15:29:22;7.07;;;6.38;;
15616;SDS011;7908;51.688;7.130;2022-08-19T15:31:58;7.55;;;6.13;;
15616;SDS011;7908;51.688;7.130;2022-08-19T15:34:28;7.65;;;5.32;;
15616;SDS011;7908;51.688;7.130;2022-08-19T15:37:07;9.40;;;6.75;;
15616;SDS011;7908;51.688;7.130;2022-08-19T15:39:40;7.88;;;6.53;;
15616;SDS011;7908;51.688;7.130;2022-08-19T15:42:12;8.10;;;6.82;;
15616;SDS011;7908;51.688;7.130;2022-08-19T15:44:55;7.07;;;5.68;;
15616;SDS011;7908;51.688;7.130;2022-08-19T15:47:29;7.00;;;6.28;;
15616;SDS011;7908;51.688;7.130;2022-08-19T15:50:05;5.55;;;4.93;;
15616;SDS011;7908;51.688;7.130;2022-08-19T15:52:49;6.93;;;5.28;;